Airfield :
LOGIN :

Register | Disclaimer

   EN    FR    IT 

 










Legend :    VFR   Marginal VFR   IFR   Intensive IFR   Very Intensive IFR
Visi :
Ceiling :
>= 8 km
>= 3000ft
5 to 8 km
1000 to 3000 ft
1500m to 5 km
500 to 1000 ft
800 to 1500m
200 to 500 ft
< 800m
< 200 ft
Symbols :   Thunderstorms  Fog  Heavy snow  Heavy precipitations  Wind > 20 kt
SIGMETs :     Misc.  Thunderstorms  Icing  Turbulence  Mountain Waves  Volcanic Ashes







- Airport Elevation : 466 ft


LHPA - Pápa

CURRENT METAR :
  • 251045Z 13004KT 9999 BKN033 18/08 Q1022 NOSIG RMK BLU

EXPIRED METARs :
  • 251015Z 21002KT 9999 BKN033 17/10 Q1022 NOSIG RMK BLU
  • 250945Z 15004KT 9999 BKN030 17/09 Q1023 NOSIG RMK BLU
  • 250915Z 18004KT 9999 BKN027 17/09 Q1022 NOSIG RMK BLU
  • 250845Z 16002KT 9999 BKN027 16/09 Q1022 NOSIG RMK BLU
  • 250815Z 25002KT 9999 BKN020 16/11 Q1022 NOSIG RMK WHT

TAF TAF LHPA
Valid from the 25 at 06:00 until the 26 at 06:00 UTC


250515Z 2506/2606 VRB03KT 5000 BR SCT025
TEMPO 2506/2509 1500 BR BCFG BKN005
BECMG 2509/2512 9999 NSW
BECMG 2515/2518 SCT030 BKN080
TEMPO 2600/2606 5000 -RA SHRA BR BKN030 OVC060
No reported NOTAMs for that airfield.



MET'MAP, your aeronautical weather chart ! - Copyright ORBIFLY December 2007 - Disclaimer

ORBIFLY MET'MAP TEAM :

Programming & Development : Alexandra Zaïnal
Concept & Development : Baudouin d'Aumeries
Co-Development & Prog : Marc-Olivier Méhu
Technical & hardware support : Manuel Goepfert

Contact : metmap@orbifly.com




SOURCES & CREDITS :

   NOAA